Ana Sayfa
METAR-TAF:

METAR-TAF

Havaalanları :

Kunming, Çin

Enlem: 25-01N, Boylam: 102-41E, yükseklik: 1892 m

Güncel hava durumu gözlemi

Rapor saat 07:00 UTC de 33 dakika önce yapıldı.
Rüzgar batı/güneybatıdan 16 kt
Sıcaklık 19°C
Nem 32%
Basınç 1020 hPa
Görüş mesafesi 10 km veya daha fazla
1500 m altında bulut yok ve kümülonimbus yok

METAR: ZPPP 250700Z 25008MPS CAVOK 19/02 Q1020 NOSIG

Saat: 15:33 (07:33 UTC)

Tahmin

Rapor saat 03:04 UTC de 4 saat ve 29 dakika önce yapıldı.
Ayın 25'si saat 06 UTC'den ayın 26'si saat 06 UTC'ye kadar geçerli Tahmin
Rüzgar güneybatıdan 14 kt
Görüş mesafesi 10 km veya daha fazla
2600 ft yükseklikte parçalı bulutlu

TAF: ZPPP 250304Z 2506/2606 22007MPS 9999 SCT026 TX20/2508Z TN06/2523Z

4.000'den fazla havaalanı için hava durumu gözlemleri ve tahminleri (METAR ve TAF raporları).

Kullanılabilir istasyonlar harita üzerinde sarı ve kırmızı noktalarla gösterilir.

İstasyonun adını görmek için fareyi noktanın üzerinde gezdirin.

Sonrasında hava gözlem ve tahminlerini görmek için tıklayın.

Haritayı değiştirmek için: yaklaştırmak için siyah artı işaretli yeşil düğmeye ve uzaklaştırmak için de eksi işaretli düğmeye hızla tıklayın; bitişik haritalar için yeşil okları kullanın.


METAR-TAF: